Time;durP1;ratioP1;P1;durP2;ratioP2;P2;SDS_P1;SDS_P2;PMS_P1;PMS_P2;Temp;Humidity;BMP_temperature;BMP_pressure;BME280_temperature;BME280_humidity;BME280_pressure;Samples;Min_cycle;Max_cycle;Signal;HPM_P1;HPM_P2
2022/06/23 00:01:49;;;;;;;6.57;1.85;;;14.10;99.90;;;;;;5057417;28;20464;-69
2022/06/23 00:04:19;;;;;;;4.03;2.10;;;14.10;99.90;;;;;;5057253;28;20049;-69
2022/06/23 00:06:48;;;;;;;4.00;2.13;;;14.10;99.90;;;;;;5057612;28;20063;-69
2022/06/23 00:09:35;;;;;;;4.05;2.20;;;14.10;99.90;;;;;;5075101;28;20357;-69
2022/06/23 00:12:13;;;;;;;5.35;2.30;;;14.00;99.90;;;;;;5056981;28;20501;-69
2022/06/23 00:14:38;;;;;;;4.75;2.20;;;14.00;99.90;;;;;;5072953;28;20483;-69
2022/06/23 00:17:29;;;;;;;3.70;2.28;;;14.00;99.90;;;;;;5077180;28;20094;-70
2022/06/23 00:19:59;;;;;;;4.65;2.53;;;13.90;99.90;;;;;;5060606;28;20135;-69
2022/06/23 00:22:28;;;;;;;5.22;2.65;;;13.90;99.90;;;;;;5077395;28;20044;-69
2022/06/23 00:24:56;;;;;;;4.35;2.33;;;13.90;99.90;;;;;;5095137;28;20050;-69
2022/06/23 00:27:32;;;;;;;6.32;3.05;;;13.90;99.90;;;;;;5095015;28;20048;-69
2022/06/23 00:30:02;;;;;;;4.43;2.22;;;14.00;99.90;;;;;;5056856;28;20040;-69
2022/06/23 00:32:30;;;;;;;5.35;2.65;;;13.90;99.90;;;;;;5074784;28;20048;-69
2022/06/23 00:35:01;;;;;;;6.20;2.78;;;13.80;99.90;;;;;;5057613;28;20040;-69
2022/06/23 00:37:28;;;;;;;6.00;3.30;;;13.80;99.90;;;;;;5057230;28;20102;-69
2022/06/23 00:39:59;;;;;;;4.35;2.28;;;13.80;99.90;;;;;;5057322;28;20060;-69
2022/06/23 00:42:28;;;;;;;5.07;2.42;;;13.80;99.90;;;;;;5075067;28;20102;-69
2022/06/23 00:44:58;;;;;;;5.32;2.42;;;13.80;99.90;;;;;;5077003;28;20472;-69
2022/06/23 00:48:10;;;;;;;6.45;3.10;;;13.70;99.90;;;;;;5094844;28;20048;-69
2022/06/23 00:50:57;;;;;;;7.93;3.80;;;13.70;99.90;;;;;;5052537;28;20091;-70
2022/06/23 00:53:50;;;;;;;5.72;2.70;;;13.70;99.90;;;;;;5076753;28;20059;-69
2022/06/23 00:56:31;;;;;;;5.18;2.78;;;13.70;99.90;;;;;;5094852;28;20039;-69
2022/06/23 00:59:14;;;;;;;4.47;2.35;;;13.60;99.90;;;;;;5071209;28;20465;-69
2022/06/23 01:01:45;;;;;;;6.05;3.25;;;13.60;99.90;;;;;;5059912;28;20053;-69
2022/06/23 01:04:39;;;;;;;6.57;4.00;;;13.60;99.90;;;;;;5078386;28;20050;-69
2022/06/23 01:07:24;;;;;;;;;;;13.60;99.90;;;;;;5044741;28;20052;-69
2022/06/23 01:09:55;;;;;;;6.70;2.70;;;13.50;99.90;;;;;;5061130;28;19920;-70
2022/06/23 01:12:40;;;;;;;5.72;3.03;;;13.50;99.90;;;;;;5060718;28;20141;-69
2022/06/23 01:15:25;;;;;;;6.40;2.88;;;13.40;99.90;;;;;;5074692;28;20135;-69
2022/06/23 01:18:23;;;;;;;7.65;3.55;;;13.50;99.90;;;;;;5077823;28;20052;-69
2022/06/23 01:21:07;;;;;;;5.20;2.65;;;13.50;99.90;;;;;;5043621;28;20132;-69
2022/06/23 01:23:57;;;;;;;6.18;3.20;;;13.40;99.90;;;;;;5059826;28;20045;-69
2022/06/23 01:26:48;;;;;;;8.65;3.35;;;13.40;99.90;;;;;;5060195;28;20045;-69
2022/06/23 01:29:43;;;;;;;6.80;3.30;;;13.40;99.90;;;;;;5059781;28;20048;-69
2022/06/23 01:32:20;;;;;;;5.72;2.90;;;13.30;99.90;;;;;;5059728;28;20045;-70
2022/06/23 01:34:56;;;;;;;7.03;2.95;;;13.30;99.90;;;;;;5059966;28;20049;-69
2022/06/23 01:37:28;;;;;;;7.05;3.35;;;13.30;99.90;;;;;;5059906;28;20070;-69
2022/06/23 01:40:23;;;;;;;8.23;3.63;;;13.30;99.90;;;;;;5077566;28;20131;-70
2022/06/23 01:43:00;;;;;;;5.50;3.05;;;13.30;99.90;;;;;;5060020;28;20064;-69
2022/06/23 01:45:38;;;;;;;7.10;2.67;;;13.30;99.90;;;;;;5076971;28;20055;-69
2022/06/23 01:51:35;;;;;;;6.82;3.38;;;13.30;99.90;;;;;;5077392;28;20092;-69
2022/06/23 01:54:21;;;;;;;5.93;2.67;;;13.30;99.90;;;;;;5053785;28;20526;-69
2022/06/23 01:57:05;;;;;;;7.47;4.18;;;13.30;99.90;;;;;;5059857;28;20060;-69
2022/06/23 01:59:53;;;;;;;6.40;3.28;;;13.30;99.90;;;;;;5076069;28;20052;-69
2022/06/23 02:02:34;;;;;;;6.38;3.35;;;13.30;99.90;;;;;;5060256;28;20087;-69
2022/06/23 02:05:11;;;;;;;10.65;4.15;;;13.20;99.90;;;;;;5059765;28;20051;-69
2022/06/23 02:07:39;;;;;;;8.43;4.22;;;13.30;99.90;;;;;;5059481;28;20079;-70
2022/06/23 02:10:18;;;;;;;7.57;3.60;;;13.30;99.90;;;;;;5042073;28;20063;-69
2022/06/23 02:13:04;;;;;;;8.60;3.33;;;13.20;99.90;;;;;;5075469;28;20465;-69
2022/06/23 02:15:34;;;;;;;7.97;3.33;;;13.20;99.90;;;;;;5046017;28;20449;-69
2022/06/23 02:18:33;;;;;;;11.35;4.35;;;13.20;99.90;;;;;;5076547;28;20372;-71
2022/06/23 02:21:04;;;;;;;5.63;3.25;;;13.10;99.90;;;;;;5089542;28;20040;-69
2022/06/23 02:23:33;;;;;;;7.72;3.50;;;13.10;99.90;;;;;;5062086;28;20063;-69
2022/06/23 02:26:02;;;;;;;9.55;5.05;;;13.10;99.90;;;;;;5097361;28;20040;-69
2022/06/23 02:28:36;;;;;;;10.23;4.20;;;13.10;99.90;;;;;;5079278;28;20094;-69
2022/06/23 02:31:14;;;;;;;10.38;4.57;;;13.10;99.90;;;;;;5079844;28;20044;-69
2022/06/23 02:34:07;;;;;;;7.43;4.20;;;13.10;99.90;;;;;;5075207;28;20040;-69
2022/06/23 02:36:41;;;;;;;7.55;3.92;;;13.00;99.90;;;;;;5058682;28;20104;-69
2022/06/23 02:39:19;;;;;;;9.85;5.03;;;13.00;99.90;;;;;;5076520;28;20356;-69
2022/06/23 02:41:58;;;;;;;9.05;3.83;;;13.00;99.90;;;;;;5058452;28;20049;-69
2022/06/23 02:44:30;;;;;;;8.05;3.80;;;13.00;99.90;;;;;;5076182;28;20047;-69
2022/06/23 02:47:25;;;;;;;10.05;3.80;;;12.90;99.90;;;;;;5058959;28;20072;-69
2022/06/23 02:49:58;;;;;;;7.90;4.28;;;13.00;99.90;;;;;;5037292;28;20376;-69
2022/06/23 02:52:53;;;;;;;7.43;3.60;;;13.00;99.90;;;;;;5058755;28;20064;-69
2022/06/23 02:55:31;;;;;;;7.72;3.45;;;12.90;99.90;;;;;;5076454;28;20339;-69
2022/06/23 02:57:58;;;;;;;8.20;3.88;;;13.00;99.90;;;;;;5041592;28;20151;-70
2022/06/23 03:00:29;;;;;;;9.52;4.35;;;12.90;99.90;;;;;;5058446;28;20058;-69
2022/06/23 03:02:55;;;;;;;7.38;4.47;;;12.90;99.90;;;;;;5077985;28;20040;-70
2022/06/23 03:05:46;;;;;;;9.13;4.47;;;13.00;99.90;;;;;;5078063;28;20059;-69
2022/06/23 03:08:21;;;;;;;9.77;4.43;;;12.90;99.90;;;;;;5078097;28;20135;-70
2022/06/23 03:10:56;;;;;;;10.35;4.82;;;12.90;99.90;;;;;;5078392;28;20448;-69
2022/06/23 03:13:58;;;;;;;8.05;4.28;;;12.80;99.90;;;;;;5078434;28;20051;-69
2022/06/23 03:16:30;;;;;;;8.63;4.20;;;12.80;99.90;;;;;;5071707;28;20056;-69
2022/06/23 03:19:16;;;;;;;8.70;4.70;;;12.80;99.90;;;;;;5073821;28;20138;-69
2022/06/23 03:21:48;;;;;;;8.70;4.75;;;12.80;99.90;;;;;;5058631;28;20048;-69
2022/06/23 03:24:25;;;;;;;7.47;4.20;;;12.80;99.90;;;;;;5056729;28;20478;-69
2022/06/23 03:26:58;;;;;;;11.02;4.65;;;12.80;99.90;;;;;;5075491;28;20040;-69
2022/06/23 03:29:31;;;;;;;9.45;4.10;;;12.80;99.90;;;;;;5075666;28;20045;-69
2022/06/23 03:32:01;;;;;;;8.07;4.18;;;12.80;99.90;;;;;;5057942;28;20052;-69
2022/06/23 03:34:29;;;;;;;7.50;4.53;;;12.80;99.90;;;;;;5075389;28;20056;-69
2022/06/23 03:37:13;;;;;;;9.43;4.65;;;12.80;99.90;;;;;;5075307;28;20076;-69
2022/06/23 03:42:30;;;;;;;8.45;4.15;;;12.80;99.90;;;;;;5057844;28;19960;-69
2022/06/23 03:45:36;;;;;;;9.18;4.22;;;12.80;99.90;;;;;;5023492;28;20069;-69
2022/06/23 03:48:13;;;;;;;8.52;4.18;;;12.80;99.90;;;;;;5074313;28;20491;-70
2022/06/23 03:51:13;;;;;;;7.88;4.75;;;12.80;99.90;;;;;;5077249;28;20475;-70
2022/06/23 03:53:47;;;;;;;7.88;4.25;;;12.80;99.90;;;;;;5060525;28;20060;-70
2022/06/23 03:56:20;;;;;;;8.57;4.35;;;12.90;99.90;;;;;;5057225;28;20445;-70
2022/06/23 03:59:07;;;;;;;9.68;5.18;;;12.90;99.90;;;;;;5077349;28;20067;-70
2022/06/23 04:01:48;;;;;;;11.98;4.50;;;12.90;99.90;;;;;;5075623;28;20142;-69
2022/06/23 04:04:19;;;;;;;7.88;4.78;;;12.90;99.90;;;;;;5061818;28;20045;-70
2022/06/23 04:06:47;;;;;;;12.15;5.18;;;13.00;99.90;;;;;;5072430;28;20044;-71
2022/06/23 04:09:27;;;;;;;9.68;4.65;;;13.00;99.90;;;;;;5092427;28;20058;-70
2022/06/23 04:12:07;;;;;;;9.52;4.75;;;13.00;99.90;;;;;;5074761;28;20052;-70
2022/06/23 04:14:51;;;;;;;8.77;4.05;;;13.00;99.90;;;;;;5074718;28;20049;-70
2022/06/23 04:17:38;;;;;;;8.02;4.85;;;13.10;99.90;;;;;;5057235;28;20143;-70
2022/06/23 04:20:16;;;;;;;10.00;4.47;;;13.10;99.90;;;;;;5057184;28;20061;-71
2022/06/23 04:22:59;;;;;;;9.68;5.03;;;13.10;99.90;;;;;;5060105;28;20057;-70
2022/06/23 04:25:36;;;;;;;8.85;4.57;;;13.20;99.90;;;;;;5077262;28;20043;-71
2022/06/23 04:28:02;;;;;;;8.40;3.97;;;13.20;99.90;;;;;;5076554;28;20062;-70
2022/06/23 04:30:33;;;;;;;8.55;3.92;;;13.20;99.90;;;;;;5061274;28;20040;-71
2022/06/23 04:33:02;;;;;;;10.68;5.68;;;13.30;99.90;;;;;;5074702;28;20040;-71
2022/06/23 04:35:37;;;;;;;12.25;5.07;;;13.30;99.90;;;;;;5057845;28;20127;-70
2022/06/23 04:38:15;;;;;;;10.80;4.78;;;13.40;99.90;;;;;;5060922;28;20056;-70
2022/06/23 04:40:41;;;;;;;8.88;4.65;;;13.40;99.90;;;;;;5061051;28;20064;-70
2022/06/23 04:43:16;;;;;;;7.95;4.32;;;13.50;99.90;;;;;;5060919;28;20377;-70
2022/06/23 04:46:00;;;;;;;12.02;5.85;;;13.60;99.90;;;;;;5069465;28;20076;-70
2022/06/23 04:48:39;;;;;;;10.13;5.20;;;13.80;99.90;;;;;;5078517;28;20340;-70
2022/06/23 04:51:27;;;;;;;8.95;4.03;;;14.20;99.90;;;;;;5078422;28;20116;-71
2022/06/23 04:54:11;;;;;;;10.45;4.35;;;14.40;99.90;;;;;;5060699;28;20092;-70
2022/06/23 04:56:42;;;;;;;9.23;5.55;;;14.40;99.90;;;;;;5078162;28;20055;-71
2022/06/23 04:59:32;;;;;;;9.60;4.60;;;14.40;99.90;;;;;;5061266;28;20067;-70
2022/06/23 05:02:17;;;;;;;10.48;5.07;;;14.50;99.90;;;;;;5065062;28;20044;-70
2022/06/23 05:04:46;;;;;;;8.82;4.55;;;14.50;99.90;;;;;;5060416;28;20109;-70
2022/06/23 05:07:28;;;;;;;8.80;4.47;;;14.50;99.90;;;;;;5060502;28;20360;-70
2022/06/23 05:10:00;;;;;;;11.73;5.10;;;14.50;99.90;;;;;;5077828;28;20052;-70
2022/06/23 05:12:34;;;;;;;9.60;5.50;;;14.60;99.90;;;;;;5077962;28;20044;-71
2022/06/23 05:14:59;;;;;;;8.95;4.45;;;15.50;99.90;;;;;;5068129;28;20051;-70
2022/06/23 05:17:28;;;;;;;15.65;6.10;;;16.90;99.90;;;;;;5069232;28;20044;-70
2022/06/23 05:19:58;;;;;;;9.82;5.88;;;18.40;99.90;;;;;;5095840;28;20056;-69
2022/06/23 05:22:36;;;;;;;10.35;5.63;;;19.50;99.90;;;;;;5088539;28;20554;-71
2022/06/23 05:25:24;;;;;;;8.02;4.55;;;20.40;99.90;;;;;;5117845;28;20139;-70
2022/06/23 05:27:51;;;;;;;8.00;4.90;;;21.70;99.90;;;;;;5102739;28;20051;-69
2022/06/23 05:30:39;;;;;;;8.30;5.18;;;22.40;99.90;;;;;;5078795;28;20121;-69
2022/06/23 05:33:18;;;;;;;8.48;4.65;;;23.00;99.90;;;;;;5080000;28;20054;-69
2022/06/23 05:35:48;;;;;;;8.68;4.45;;;23.60;99.90;;;;;;5080031;28;20123;-68
2022/06/23 05:38:30;;;;;;;7.57;4.47;;;24.40;99.90;;;;;;5097974;28;20385;-69
2022/06/23 05:41:02;;;;;;;9.23;5.32;;;24.50;99.90;;;;;;5093329;28;20130;-71
2022/06/23 05:43:31;;;;;;;7.78;3.90;;;24.90;99.90;;;;;;5096238;28;20077;-70
2022/06/23 05:46:03;;;;;;;6.40;4.20;;;25.20;99.90;;;;;;5089166;28;20051;-69
2022/06/23 05:48:41;;;;;;;7.03;3.85;;;25.10;99.60;;;;;;5085872;28;20059;-71
2022/06/23 05:51:09;;;;;;;9.20;3.97;;;25.60;99.00;;;;;;5113900;28;20055;-69
2022/06/23 05:53:56;;;;;;;7.40;3.90;;;25.90;98.70;;;;;;5083684;28;20042;-69
2022/06/23 05:56:37;;;;;;;8.48;4.10;;;25.80;98.20;;;;;;5081529;28;20135;-69
2022/06/23 05:59:09;;;;;;;10.52;3.80;;;25.80;98.50;;;;;;5080668;28;20053;-70
2022/06/23 06:01:39;;;;;;;8.93;4.00;;;26.30;97.90;;;;;;5052940;28;20136;-70
2022/06/23 06:04:20;;;;;;;10.02;4.32;;;26.50;98.70;;;;;;5066866;28;20457;-69
2022/06/23 06:06:46;;;;;;;6.05;3.97;;;26.90;97.00;;;;;;5075337;28;20039;-68
2022/06/23 06:12:01;;;;;;;5.15;3.50;;;27.00;96.70;;;;;;5046063;28;20055;-69
2022/06/23 06:14:30;;;;;;;6.13;3.63;;;27.10;97.50;;;;;;5075374;28;20193;-69
2022/06/23 06:16:57;;;;;;;6.22;3.42;;;27.40;95.90;;;;;;5084205;28;20049;-69
2022/06/23 06:19:28;;;;;;;5.07;3.22;;;27.70;97.00;;;;;;5073934;28;20063;-69
2022/06/23 06:21:57;;;;;;;6.10;3.50;;;27.60;96.50;;;;;;5078782;28;20047;-69
2022/06/23 06:24:30;;;;;;;5.97;3.50;;;27.90;95.00;;;;;;5078478;28;20052;-69
2022/06/23 06:26:56;;;;;;;;;;;28.00;95.10;;;;;;5097013;28;20044;-69
2022/06/23 06:29:26;;;;;;;6.22;3.28;;;27.50;95.20;;;;;;5066392;28;19924;-69
2022/06/23 06:31:59;;;;;;;6.22;2.83;;;27.70;95.90;;;;;;5058360;28;20364;-69
2022/06/23 06:34:43;;;;;;;5.78;2.97;;;28.00;95.90;;;;;;5058661;28;20048;-68
2022/06/23 06:37:14;;;;;;;4.60;3.17;;;28.70;95.60;;;;;;5076098;28;20373;-69
2022/06/23 06:39:48;;;;;;;5.55;3.00;;;28.60;94.00;;;;;;5075986;28;20048;-70
2022/06/23 06:42:25;;;;;;;5.95;3.28;;;29.30;94.50;;;;;;5058433;28;20511;-70
2022/06/23 06:44:54;;;;;;;6.60;2.92;;;29.20;94.10;;;;;;5051890;28;20045;-70
2022/06/23 06:47:28;;;;;;;6.93;3.80;;;29.00;94.30;;;;;;5037755;28;20509;-71
2022/06/23 06:49:59;;;;;;;5.93;3.40;;;29.30;93.60;;;;;;5037960;28;20049;-71
2022/06/23 06:52:27;;;;;;;6.15;3.00;;;29.60;94.20;;;;;;5038016;28;20045;-70
2022/06/23 06:54:59;;;;;;;4.22;2.60;;;29.30;93.20;;;;;;5038181;28;20132;-70
2022/06/23 06:57:36;;;;;;;7.60;3.15;;;29.60;93.60;;;;;;5062752;28;20044;-70
2022/06/23 07:00:20;;;;;;;6.80;3.42;;;29.60;93.50;;;;;;5072924;28;20044;-70
2022/06/23 07:02:56;;;;;;;5.53;3.05;;;30.20;92.20;;;;;;5078137;28;20051;-70
2022/06/23 07:05:31;;;;;;;7.43;3.20;;;30.10;93.00;;;;;;5078231;28;20482;-70
2022/06/23 07:08:19;;;;;;;7.82;3.13;;;30.30;92.70;;;;;;5077471;28;20048;-70
2022/06/23 07:10:50;;;;;;;5.45;3.22;;;30.60;92.20;;;;;;5061007;28;20036;-70
2022/06/23 07:13:26;;;;;;;5.20;2.50;;;30.50;91.90;;;;;;5091515;28;20117;-70
2022/06/23 07:16:06;;;;;;;5.15;2.47;;;30.60;92.00;;;;;;5063360;28;20044;-70
2022/06/23 07:18:40;;;;;;;6.03;2.80;;;30.60;91.20;;;;;;5057602;28;20500;-71
2022/06/23 07:21:20;;;;;;;5.32;2.90;;;30.30;91.60;;;;;;5057911;28;20045;-70
2022/06/23 07:24:00;;;;;;;5.22;2.88;;;30.00;91.20;;;;;;5057719;28;20085;-70
2022/06/23 07:26:40;;;;;;;5.75;2.60;;;29.80;91.70;;;;;;5057929;28;20056;-70
2022/06/23 07:29:20;;;;;;;4.00;2.50;;;29.50;92.30;;;;;;5075042;28;20131;-71
2022/06/23 07:32:15;;;;;;;4.20;2.63;;;30.00;92.30;;;;;;5074369;28;20102;-70
2022/06/23 07:34:46;;;;;;;4.95;2.13;;;30.00;91.60;;;;;;5074976;28;20044;-70
2022/06/23 07:37:28;;;;;;;7.80;3.55;;;29.60;91.80;;;;;;5075115;28;20063;-70
2022/06/23 07:40:00;;;;;;;4.63;2.42;;;30.00;92.30;;;;;;5057119;28;20044;-70
2022/06/23 07:42:35;;;;;;;;;;;30.10;91.60;;;;;;5075507;28;20119;-70
2022/06/23 07:45:05;;;;;;;4.43;2.35;;;29.70;91.70;;;;;;5056943;28;19999;-70
2022/06/23 07:47:31;;;;;;;4.40;2.70;;;30.30;92.00;;;;;;5074543;28;20048;-70
2022/06/23 07:49:57;;;;;;;6.03;2.60;;;30.20;91.80;;;;;;5039090;22;20477;-70
2022/06/23 07:52:23;;;;;;;6.28;2.80;;;30.60;91.70;;;;;;5006099;28;20038;-70
2022/06/23 07:54:50;;;;;;;6.20;2.88;;;30.60;91.00;;;;;;5008302;28;20046;-69
2022/06/23 07:57:16;;;;;;;5.88;2.65;;;30.80;91.60;;;;;;5007331;28;20053;-69
2022/06/23 07:59:50;;;;;;;4.88;2.40;;;30.80;90.90;;;;;;5008758;28;20061;-69
2022/06/23 08:02:22;;;;;;;4.00;2.92;;;30.70;91.60;;;;;;5013946;28;20477;-70
2022/06/23 08:05:03;;;;;;;8.90;1.83;;;30.80;91.20;;;;;;5014749;28;20038;-70
2022/06/23 08:07:30;;;;;;;5.32;2.45;;;31.30;91.30;;;;;;5014869;28;20421;-71
2022/06/23 08:10:00;;;;;;;4.22;2.17;;;31.40;91.10;;;;;;5014454;28;20077;-70
2022/06/23 08:13:02;;;;;;;4.38;2.67;;;31.40;90.50;;;;;;5013635;28;20054;-70
2022/06/23 08:18:29;;;;;;;4.95;2.08;;;30.90;90.40;;;;;;4994963;28;20051;-70
2022/06/23 08:21:02;;;;;;;4.40;2.20;;;30.60;91.20;;;;;;4996069;28;20104;-69
2022/06/23 08:23:33;;;;;;;3.67;2.28;;;30.70;90.80;;;;;;5003584;28;20049;-68
2022/06/23 08:26:00;;;;;;;3.58;2.03;;;30.80;90.40;;;;;;5004967;28;20038;-68
2022/06/23 08:28:26;;;;;;;4.38;2.40;;;30.30;90.80;;;;;;5007738;28;20085;-68
2022/06/23 08:30:52;;;;;;;4.60;2.28;;;30.00;90.30;;;;;;5007209;28;20430;-68
2022/06/23 08:33:17;;;;;;;5.30;2.22;;;29.90;90.80;;;;;;5014329;28;20074;-68
2022/06/23 08:35:47;;;;;;;11.57;3.08;;;30.00;91.10;;;;;;5014904;28;20108;-68
2022/06/23 08:38:31;;;;;;;6.40;2.50;;;29.90;91.20;;;;;;5014186;28;20041;-69
2022/06/23 08:41:15;;;;;;;5.75;2.60;;;30.40;90.90;;;;;;5013930;28;20490;-68
2022/06/23 08:43:49;;;;;;;5.20;2.60;;;30.50;90.60;;;;;;5013386;28;20042;-69
2022/06/23 08:46:39;;;;;;;3.88;2.03;;;30.60;89.70;;;;;;5013301;28;20410;-69
2022/06/23 08:49:20;;;;;;;4.80;2.67;;;30.30;90.20;;;;;;5014001;28;20383;-70
2022/06/23 08:51:59;;;;;;;8.60;1.73;;;30.30;90.70;;;;;;4996360;28;20511;-69
2022/06/23 08:54:34;;;;;;;5.15;2.65;;;30.50;90.30;;;;;;4997472;28;20062;-69
2022/06/23 08:57:30;;;;;;;7.72;2.55;;;30.40;90.30;;;;;;4996775;28;20041;-68
2022/06/23 09:00:42;;;;;;;3.40;1.95;;;30.70;90.70;;;;;;5009697;28;20419;-68
2022/06/23 09:03:39;;;;;;;5.50;2.53;;;30.10;90.20;;;;;;4935343;28;20070;-68
2022/06/23 09:06:10;;;;;;;5.18;2.20;;;30.40;90.90;;;;;;4985701;28;20066;-68
2022/06/23 09:08:42;;;;;;;4.47;2.15;;;30.60;90.50;;;;;;4996853;28;20454;-68
2022/06/23 09:11:21;;;;;;;4.20;2.50;;;30.70;89.10;;;;;;4997489;28;20077;-68
2022/06/23 09:14:24;;;;;;;3.95;2.10;;;30.30;89.60;;;;;;5014735;28;20046;-68
2022/06/23 09:17:02;;;;;;;;;;;30.40;89.90;;;;;;4997646;28;20053;-69
2022/06/23 09:20:01;;;;;;;5.45;2.47;;;30.50;90.20;;;;;;4996706;28;20317;-68
2022/06/23 09:22:51;;;;;;;7.35;2.40;;;30.40;88.90;;;;;;4997010;28;20078;-68
2022/06/23 09:25:26;;;;;;;5.38;2.05;;;30.20;90.00;;;;;;4980791;28;20125;-68
2022/06/23 09:28:19;;;;;;;6.07;1.92;;;30.10;90.00;;;;;;4981064;28;20497;-69
2022/06/23 09:31:07;;;;;;;3.38;1.80;;;29.90;89.10;;;;;;4981191;28;20121;-69
2022/06/23 09:34:06;;;;;;;3.88;2.00;;;29.40;89.70;;;;;;4975671;28;20050;-69
2022/06/23 09:36:43;;;;;;;3.42;2.28;;;29.20;90.10;;;;;;4995923;28;20156;-69
2022/06/23 09:39:45;;;;;;;2.80;1.98;;;29.20;90.00;;;;;;5000080;28;20061;-69
2022/06/23 09:42:20;;;;;;;3.83;2.03;;;28.90;90.10;;;;;;5017723;28;20374;-69
2022/06/23 09:44:58;;;;;;;2.40;1.30;;;28.80;91.00;;;;;;5017288;28;20038;-69
2022/06/23 09:47:32;;;;;;;5.95;1.83;;;29.00;90.30;;;;;;5000215;28;20050;-69
2022/06/23 09:50:07;;;;;;;3.33;1.63;;;29.10;89.50;;;;;;5015931;28;20053;-69
2022/06/23 09:52:32;;;;;;;2.10;1.20;;;29.10;89.50;;;;;;5016578;28;20343;-69
2022/06/23 09:55:16;;;;;;;3.35;1.20;;;29.30;89.30;;;;;;4999622;28;20045;-70
2022/06/23 09:58:09;;;;;;;3.33;1.52;;;29.30;89.00;;;;;;5000200;28;20141;-69
2022/06/23 10:00:56;;;;;;;3.15;1.65;;;29.30;88.50;;;;;;5017153;28;20042;-69
2022/06/23 10:03:34;;;;;;;2.28;1.00;;;29.30;89.00;;;;;;5016517;28;20038;-69
2022/06/23 10:06:27;;;;;;;2.75;1.40;;;29.60;90.10;;;;;;5017093;28;20234;-69
2022/06/23 10:09:20;;;;;;;5.55;1.55;;;29.60;86.70;;;;;;5016859;28;20050;-70
2022/06/23 10:12:12;;;;;;;4.72;1.90;;;29.60;87.20;;;;;;4999570;28;20516;-70
2022/06/23 10:14:50;;;;;;;8.23;1.73;;;29.10;85.30;;;;;;5016817;28;20050;-69
2022/06/23 10:17:35;;;;;;;7.80;2.30;;;29.10;87.90;;;;;;5017272;28;20417;-65
2022/06/23 10:20:17;;;;;;;2.67;1.50;;;29.20;89.20;;;;;;4999138;28;20478;-70
2022/06/23 10:22:48;;;;;;;3.95;1.75;;;29.30;87.50;;;;;;4999417;28;20042;-68
2022/06/23 10:25:20;;;;;;;3.53;1.60;;;29.30;86.40;;;;;;4999111;28;20045;-68
2022/06/23 10:27:57;;;;;;;5.68;1.67;;;29.10;86.20;;;;;;5016758;28;20340;-67
2022/06/23 10:30:47;;;;;;;3.67;1.73;;;29.10;86.60;;;;;;4999364;28;20053;-68
2022/06/23 10:33:40;;;;;;;4.63;1.40;;;29.00;86.90;;;;;;5014917;28;20060;-67
2022/06/23 10:36:27;;;;;;;4.80;1.50;;;29.00;89.50;;;;;;5016512;28;20418;-68
2022/06/23 10:39:08;;;;;;;5.18;2.03;;;29.00;87.60;;;;;;5012896;28;20045;-68
2022/06/23 10:42:05;;;;;;;2.67;1.60;;;29.20;87.00;;;;;;5018374;28;20133;-68
2022/06/23 10:45:06;;;;;;;4.28;1.92;;;29.40;86.90;;;;;;5036050;28;20046;-68
2022/06/23 10:47:46;;;;;;;5.93;1.50;;;29.30;85.20;;;;;;5004556;28;20041;-69
2022/06/23 10:50:50;;;;;;;4.85;1.48;;;29.50;87.60;;;;;;4994679;28;20132;-68
2022/06/23 10:53:26;;;;;;;;;;;29.60;86.70;;;;;;5000225;28;20066;-68
2022/06/23 10:56:04;;;;;;;6.78;2.00;;;29.60;86.20;;;;;;4998947;28;19921;-68
2022/06/23 10:58:42;;;;;;;4.20;1.58;;;29.70;84.90;;;;;;4998630;28;20056;-68
2022/06/23 11:01:15;;;;;;;3.13;1.70;;;29.70;86.20;;;;;;5007527;28;20065;-68
2022/06/23 11:04:00;;;;;;;4.22;1.55;;;29.80;86.70;;;;;;4998314;28;20042;-68
2022/06/23 11:06:45;;;;;;;3.70;1.75;;;29.80;87.30;;;;;;4999750;28;20107;-67
2022/06/23 11:09:39;;;;;;;3.15;1.77;;;29.90;85.00;;;;;;4996202;28;20069;-68
2022/06/23 11:12:36;;;;;;;3.05;1.45;;;30.20;86.30;;;;;;4978738;28;20050;-68
2022/06/23 11:15:45;;;;;;;3.28;1.52;;;30.30;85.40;;;;;;4962211;28;20089;-68
2022/06/23 11:18:45;;;;;;;5.60;1.50;;;30.50;84.80;;;;;;4995615;28;20109;-68
2022/06/23 11:21:44;;;;;;;5.03;1.65;;;30.40;83.80;;;;;;5015060;28;20050;-68
2022/06/23 11:24:31;;;;;;;3.17;1.95;;;30.30;84.40;;;;;;4978672;28;20050;-69
2022/06/23 11:27:06;;;;;;;2.58;1.63;;;30.30;83.90;;;;;;4977834;28;20054;-69
2022/06/23 11:29:44;;;;;;;2.42;1.20;;;30.60;83.70;;;;;;4978085;28;20142;-68
2022/06/23 11:32:18;;;;;;;3.75;1.25;;;30.70;82.10;;;;;;4996394;28;20120;-68
2022/06/23 11:34:53;;;;;;;2.95;1.35;;;30.50;81.90;;;;;;4998291;28;20355;-69
2022/06/23 11:37:44;;;;;;;3.22;1.13;;;30.50;82.60;;;;;;5014538;28;20041;-68
2022/06/23 11:40:33;;;;;;;4.57;1.20;;;30.70;82.20;;;;;;4997166;28;20064;-68
2022/06/23 11:43:11;;;;;;;2.05;1.17;;;30.90;81.10;;;;;;4997909;28;20057;-68
2022/06/23 11:45:49;;;;;;;1.75;1.10;;;31.20;83.20;;;;;;4995302;28;20469;-69
2022/06/23 11:48:54;;;;;;;2.55;1.30;;;31.40;81.40;;;;;;4978231;28;20046;-69
2022/06/23 11:51:46;;;;;;;3.08;1.30;;;31.50;81.60;;;;;;4977947;28;20089;-69
2022/06/23 11:54:32;;;;;;;2.40;1.57;;;31.50;81.10;;;;;;4971737;28;20357;-69
2022/06/23 11:57:17;;;;;;;3.63;1.42;;;31.30;80.60;;;;;;4961787;28;20054;-69
2022/06/23 11:59:54;;;;;;;2.78;1.20;;;31.30;78.80;;;;;;4977387;28;20056;-69
2022/06/23 12:02:20;;;;;;;3.42;1.40;;;31.50;79.70;;;;;;4993568;28;20049;-69
2022/06/23 12:04:58;;;;;;;4.15;1.25;;;31.50;80.70;;;;;;5014086;28;20052;-69
2022/06/23 12:07:51;;;;;;;1.85;1.15;;;31.40;77.20;;;;;;5014484;28;20060;-69
2022/06/23 12:10:19;;;;;;;4.10;1.08;;;31.40;78.60;;;;;;5014405;28;20434;-69
2022/06/23 12:12:47;;;;;;;3.83;1.38;;;31.60;79.40;;;;;;4996811;28;20053;-69
2022/06/23 12:15:17;;;;;;;2.53;0.98;;;31.50;78.50;;;;;;5012063;28;20056;-69
2022/06/23 12:17:48;;;;;;;2.83;1.27;;;31.50;77.20;;;;;;4991473;28;20104;-69
2022/06/23 12:20:29;;;;;;;2.38;1.10;;;31.50;76.70;;;;;;4987639;28;20129;-69
2022/06/23 12:23:43;;;;;;;3.15;1.30;;;31.50;78.30;;;;;;5008345;28;20054;-69
2022/06/23 12:26:19;;;;;;;3.85;1.23;;;31.80;80.50;;;;;;4970355;28;20479;-70
2022/06/23 12:28:58;;;;;;;7.72;1.85;;;32.00;79.50;;;;;;4974334;28;20054;-68
2022/06/23 12:31:40;;;;;;;3.05;0.93;;;32.10;77.00;;;;;;4988270;28;20045;-69
2022/06/23 12:34:30;;;;;;;2.00;1.23;;;32.20;78.70;;;;;;4996239;28;20050;-68
2022/06/23 12:37:01;;;;;;;1.75;1.02;;;32.10;77.30;;;;;;5013275;28;20053;-70
2022/06/23 12:39:55;;;;;;;5.38;1.10;;;32.10;78.30;;;;;;4996864;28;20093;-69
2022/06/23 12:42:35;;;;;;;4.80;1.27;;;32.20;75.90;;;;;;5013771;28;20050;-69
2022/06/23 12:45:29;;;;;;;3.83;1.48;;;32.20;76.40;;;;;;5014089;28;20053;-68
2022/06/23 12:48:15;;;;;;;1.95;1.20;;;32.20;76.10;;;;;;5003451;28;20123;-69
2022/06/23 12:51:12;;;;;;;4.82;1.60;;;32.30;75.80;;;;;;4996192;28;20096;-70
2022/06/23 12:53:52;;;;;;;4.13;1.40;;;32.30;75.20;;;;;;5013993;28;20053;-70
2022/06/23 12:56:39;;;;;;;10.05;1.60;;;32.40;76.50;;;;;;5014540;28;20041;-68
2022/06/23 12:59:10;;;;;;;7.00;1.55;;;32.60;75.70;;;;;;5017421;28;20045;-69
2022/06/23 13:01:41;;;;;;;3.78;1.40;;;32.60;75.70;;;;;;5000137;28;20417;-68
2022/06/23 13:04:41;;;;;;;4.55;1.38;;;32.80;75.90;;;;;;5016010;28;20059;-69
2022/06/23 13:07:15;;;;;;;5.28;1.60;;;32.70;74.90;;;;;;5017521;28;20046;-70
2022/06/23 13:10:01;;;;;;;2.75;1.50;;;32.80;74.40;;;;;;5000046;28;20493;-69
2022/06/23 13:12:36;;;;;;;4.72;1.55;;;32.50;74.80;;;;;;5017101;28;20057;-70
2022/06/23 13:15:17;;;;;;;1.95;1.00;;;32.70;73.50;;;;;;5000414;28;20104;-70
2022/06/23 13:18:08;;;;;;;2.63;1.10;;;32.80;73.90;;;;;;5000161;28;20058;-70
2022/06/23 13:20:47;;;;;;;1.75;1.13;;;32.70;73.30;;;;;;4999601;28;20054;-70
2022/06/23 13:23:25;;;;;;;2.35;1.10;;;32.60;73.50;;;;;;5000042;28;20136;-70
2022/06/23 13:25:56;;;;;;;2.65;1.30;;;32.50;74.90;;;;;;4993088;28;20057;-70
2022/06/23 13:28:30;;;;;;;2.22;1.30;;;32.70;75.50;;;;;;5017624;28;20038;-70
2022/06/23 13:31:03;;;;;;;2.78;1.20;;;32.80;73.00;;;;;;5000412;28;20348;-69
2022/06/23 13:33:38;;;;;;;2.45;1.35;;;32.80;75.60;;;;;;4998982;28;20105;-70
2022/06/23 13:36:28;;;;;;;5.20;1.42;;;33.10;75.30;;;;;;4999631;28;20486;-71
2022/06/23 13:39:06;;;;;;;4.80;1.20;;;33.00;74.60;;;;;;5000173;28;20045;-70
2022/06/23 13:41:49;;;;;;;2.58;1.10;;;32.70;71.60;;;;;;5015417;28;20038;-71
2022/06/23 13:44:37;;;;;;;2.90;1.10;;;32.60;74.50;;;;;;5016340;28;20042;-71
2022/06/23 13:47:18;;;;;;;2.97;1.20;;;32.80;71.90;;;;;;4997808;28;20200;-70
2022/06/23 13:50:20;;;;;;;2.05;1.13;;;32.70;72.60;;;;;;4995979;28;20105;-70
2022/06/23 13:52:56;;;;;;;2.35;1.20;;;32.80;74.60;;;;;;4992030;28;20112;-71
2022/06/23 13:55:32;;;;;;;4.70;1.20;;;32.90;73.70;;;;;;4980325;28;20050;-71
2022/06/23 13:58:18;;;;;;;1.73;0.90;;;33.00;76.60;;;;;;4980055;28;20038;-71
2022/06/23 14:00:52;;;;;;;6.40;1.23;;;33.20;73.00;;;;;;4996728;28;20054;-69
2022/06/23 14:03:32;;;;;;;1.75;0.90;;;33.20;72.90;;;;;;4998030;28;20046;-69